sensor_id;sensor_type;location;lat;lon;timestamp;P1;durP1;ratioP1;P2;durP2;ratioP2
50102;SDS011;35993;52.604;10.078;2023-04-16T00:01:48;26.30;;;16.67;;
50102;SDS011;35993;52.604;10.078;2023-04-16T00:04:13;27.60;;;15.40;;
50102;SDS011;35993;52.604;10.078;2023-04-16T00:06:39;25.27;;;16.48;;
50102;SDS011;35993;52.604;10.078;2023-04-16T00:09:05;29.15;;;16.67;;
50102;SDS011;35993;52.604;10.078;2023-04-16T00:11:30;25.05;;;16.55;;
50102;SDS011;35993;52.604;10.078;2023-04-16T00:13:56;25.42;;;16.60;;
50102;SDS011;35993;52.604;10.078;2023-04-16T00:16:22;27.55;;;16.15;;
50102;SDS011;35993;52.604;10.078;2023-04-16T00:18:47;27.85;;;16.58;;
50102;SDS011;35993;52.604;10.078;2023-04-16T00:21:13;28.38;;;16.42;;
50102;SDS011;35993;52.604;10.078;2023-04-16T00:23:38;28.23;;;17.00;;
50102;SDS011;35993;52.604;10.078;2023-04-16T00:26:04;26.95;;;17.45;;
50102;SDS011;35993;52.604;10.078;2023-04-16T00:28:30;26.88;;;16.85;;
50102;SDS011;35993;52.604;10.078;2023-04-16T00:30:55;31.75;;;16.98;;
50102;SDS011;35993;52.604;10.078;2023-04-16T00:33:21;29.23;;;16.63;;
50102;SDS011;35993;52.604;10.078;2023-04-16T00:35:48;28.98;;;16.70;;
50102;SDS011;35993;52.604;10.078;2023-04-16T00:38:13;28.00;;;16.80;;
50102;SDS011;35993;52.604;10.078;2023-04-16T00:40:39;30.05;;;17.38;;
50102;SDS011;35993;52.604;10.078;2023-04-16T00:43:05;28.75;;;17.33;;
50102;SDS011;35993;52.604;10.078;2023-04-16T00:45:32;31.45;;;16.85;;
50102;SDS011;35993;52.604;10.078;2023-04-16T00:47:58;25.50;;;16.15;;
50102;SDS011;35993;52.604;10.078;2023-04-16T00:50:24;30.48;;;17.48;;
50102;SDS011;35993;52.604;10.078;2023-04-16T00:52:50;28.75;;;16.77;;
50102;SDS011;35993;52.604;10.078;2023-04-16T00:55:16;31.60;;;17.75;;
50102;SDS011;35993;52.604;10.078;2023-04-16T00:57:43;31.30;;;17.85;;
50102;SDS011;35993;52.604;10.078;2023-04-16T01:00:09;33.35;;;17.38;;
50102;SDS011;35993;52.604;10.078;2023-04-16T01:02:37;36.78;;;17.25;;
50102;SDS011;35993;52.604;10.078;2023-04-16T01:05:03;32.10;;;17.63;;
50102;SDS011;35993;52.604;10.078;2023-04-16T01:07:30;25.55;;;15.65;;
50102;SDS011;35993;52.604;10.078;2023-04-16T01:09:55;29.02;;;16.80;;
50102;SDS011;35993;52.604;10.078;2023-04-16T01:12:21;30.75;;;16.50;;
50102;SDS011;35993;52.604;10.078;2023-04-16T01:14:47;28.75;;;16.20;;
50102;SDS011;35993;52.604;10.078;2023-04-16T01:17:13;27.30;;;16.88;;
50102;SDS011;35993;52.604;10.078;2023-04-16T01:19:39;27.48;;;15.80;;
50102;SDS011;35993;52.604;10.078;2023-04-16T01:22:04;26.67;;;16.20;;
50102;SDS011;35993;52.604;10.078;2023-04-16T01:24:30;25.38;;;16.05;;
50102;SDS011;35993;52.604;10.078;2023-04-16T01:26:56;27.65;;;16.15;;
50102;SDS011;35993;52.604;10.078;2023-04-16T01:29:23;29.50;;;17.17;;
50102;SDS011;35993;52.604;10.078;2023-04-16T01:31:50;28.20;;;17.42;;
50102;SDS011;35993;52.604;10.078;2023-04-16T01:34:23;28.60;;;17.20;;
50102;SDS011;35993;52.604;10.078;2023-04-16T01:36:48;31.67;;;17.40;;
50102;SDS011;35993;52.604;10.078;2023-04-16T01:39:16;28.65;;;17.40;;
50102;SDS011;35993;52.604;10.078;2023-04-16T01:41:43;29.00;;;17.08;;
50102;SDS011;35993;52.604;10.078;2023-04-16T01:44:09;31.05;;;17.13;;
50102;SDS011;35993;52.604;10.078;2023-04-16T01:46:35;31.95;;;18.67;;
50102;SDS011;35993;52.604;10.078;2023-04-16T01:49:02;30.85;;;17.73;;
50102;SDS011;35993;52.604;10.078;2023-04-16T01:51:29;32.30;;;18.63;;
50102;SDS011;35993;52.604;10.078;2023-04-16T01:53:54;32.58;;;17.50;;
50102;SDS011;35993;52.604;10.078;2023-04-16T01:56:22;31.67;;;17.85;;
50102;SDS011;35993;52.604;10.078;2023-04-16T01:58:48;31.40;;;17.85;;
50102;SDS011;35993;52.604;10.078;2023-04-16T02:01:16;31.85;;;18.17;;
50102;SDS011;35993;52.604;10.078;2023-04-16T02:03:42;34.42;;;17.48;;
50102;SDS011;35993;52.604;10.078;2023-04-16T02:06:08;34.05;;;18.35;;
50102;SDS011;35993;52.604;10.078;2023-04-16T02:08:34;31.70;;;18.83;;
50102;SDS011;35993;52.604;10.078;2023-04-16T02:11:00;31.73;;;18.10;;
50102;SDS011;35993;52.604;10.078;2023-04-16T02:13:25;36.00;;;18.98;;
50102;SDS011;35993;52.604;10.078;2023-04-16T02:15:51;42.42;;;19.80;;
50102;SDS011;35993;52.604;10.078;2023-04-16T02:21:10;33.60;;;18.23;;
50102;SDS011;35993;52.604;10.078;2023-04-16T02:23:36;34.60;;;19.33;;
50102;SDS011;35993;52.604;10.078;2023-04-16T02:26:05;35.80;;;19.58;;
50102;SDS011;35993;52.604;10.078;2023-04-16T02:28:31;31.83;;;18.60;;
50102;SDS011;35993;52.604;10.078;2023-04-16T02:30:57;35.53;;;18.75;;
50102;SDS011;35993;52.604;10.078;2023-04-16T02:33:25;38.35;;;19.40;;
50102;SDS011;35993;52.604;10.078;2023-04-16T02:35:57;34.75;;;18.45;;
50102;SDS011;35993;52.604;10.078;2023-04-16T02:38:22;34.65;;;18.17;;
50102;SDS011;35993;52.604;10.078;2023-04-16T02:40:51;36.42;;;19.10;;
50102;SDS011;35993;52.604;10.078;2023-04-16T02:43:16;35.05;;;17.90;;
50102;SDS011;35993;52.604;10.078;2023-04-16T02:45:42;35.13;;;17.95;;
50102;SDS011;35993;52.604;10.078;2023-04-16T02:48:08;36.15;;;17.63;;
50102;SDS011;35993;52.604;10.078;2023-04-16T02:50:34;34.22;;;18.83;;
50102;SDS011;35993;52.604;10.078;2023-04-16T02:53:00;31.77;;;17.33;;
50102;SDS011;35993;52.604;10.078;2023-04-16T02:55:26;34.13;;;18.42;;
50102;SDS011;35993;52.604;10.078;2023-04-16T02:57:53;34.00;;;18.48;;
50102;SDS011;35993;52.604;10.078;2023-04-16T03:00:19;32.92;;;17.48;;
50102;SDS011;35993;52.604;10.078;2023-04-16T03:02:45;34.97;;;17.35;;
50102;SDS011;35993;52.604;10.078;2023-04-16T03:05:10;33.33;;;17.23;;
50102;SDS011;35993;52.604;10.078;2023-04-16T03:07:36;33.85;;;18.05;;
50102;SDS011;35993;52.604;10.078;2023-04-16T03:10:04;31.10;;;17.88;;
50102;SDS011;35993;52.604;10.078;2023-04-16T03:12:30;37.95;;;18.92;;
50102;SDS011;35993;52.604;10.078;2023-04-16T03:14:56;32.55;;;17.23;;
50102;SDS011;35993;52.604;10.078;2023-04-16T03:17:21;37.58;;;18.70;;
50102;SDS011;35993;52.604;10.078;2023-04-16T03:19:47;36.72;;;18.52;;
50102;SDS011;35993;52.604;10.078;2023-04-16T03:22:15;33.72;;;18.67;;
50102;SDS011;35993;52.604;10.078;2023-04-16T03:24:41;30.00;;;17.88;;
50102;SDS011;35993;52.604;10.078;2023-04-16T03:27:06;39.22;;;18.60;;
50102;SDS011;35993;52.604;10.078;2023-04-16T03:29:35;34.13;;;18.60;;
50102;SDS011;35993;52.604;10.078;2023-04-16T03:32:01;35.45;;;18.05;;
50102;SDS011;35993;52.604;10.078;2023-04-16T03:34:27;33.40;;;19.15;;
50102;SDS011;35993;52.604;10.078;2023-04-16T03:36:53;38.53;;;18.35;;
50102;SDS011;35993;52.604;10.078;2023-04-16T03:39:18;35.60;;;18.08;;
50102;SDS011;35993;52.604;10.078;2023-04-16T03:41:45;36.33;;;18.85;;
50102;SDS011;35993;52.604;10.078;2023-04-16T03:44:10;34.35;;;18.60;;
50102;SDS011;35993;52.604;10.078;2023-04-16T03:46:36;37.75;;;18.48;;
50102;SDS011;35993;52.604;10.078;2023-04-16T03:49:02;34.38;;;17.40;;
50102;SDS011;35993;52.604;10.078;2023-04-16T03:51:28;29.38;;;17.17;;
50102;SDS011;35993;52.604;10.078;2023-04-16T03:53:54;32.88;;;17.30;;
50102;SDS011;35993;52.604;10.078;2023-04-16T03:56:20;34.53;;;18.02;;
50102;SDS011;35993;52.604;10.078;2023-04-16T03:58:46;35.40;;;16.85;;
50102;SDS011;35993;52.604;10.078;2023-04-16T04:01:11;30.42;;;16.92;;
50102;SDS011;35993;52.604;10.078;2023-04-16T04:03:37;34.88;;;17.75;;
50102;SDS011;35993;52.604;10.078;2023-04-16T04:06:06;31.27;;;17.02;;
50102;SDS011;35993;52.604;10.078;2023-04-16T04:08:32;31.20;;;17.83;;
50102;SDS011;35993;52.604;10.078;2023-04-16T04:10:58;32.22;;;16.40;;
50102;SDS011;35993;52.604;10.078;2023-04-16T04:13:24;33.33;;;16.70;;
50102;SDS011;35993;52.604;10.078;2023-04-16T04:15:50;32.20;;;16.73;;
50102;SDS011;35993;52.604;10.078;2023-04-16T04:18:16;29.33;;;16.23;;
50102;SDS011;35993;52.604;10.078;2023-04-16T04:20:43;31.42;;;17.13;;
50102;SDS011;35993;52.604;10.078;2023-04-16T04:23:11;32.33;;;16.83;;
50102;SDS011;35993;52.604;10.078;2023-04-16T04:25:37;28.75;;;16.38;;
50102;SDS011;35993;52.604;10.078;2023-04-16T04:28:03;28.80;;;15.63;;
50102;SDS011;35993;52.604;10.078;2023-04-16T04:30:28;30.95;;;16.95;;
50102;SDS011;35993;52.604;10.078;2023-04-16T04:32:54;31.55;;;16.80;;
50102;SDS011;35993;52.604;10.078;2023-04-16T04:35:20;30.05;;;15.65;;
50102;SDS011;35993;52.604;10.078;2023-04-16T04:37:46;30.10;;;16.08;;
50102;SDS011;35993;52.604;10.078;2023-04-16T04:40:16;28.13;;;15.75;;
50102;SDS011;35993;52.604;10.078;2023-04-16T04:42:42;29.95;;;15.88;;
50102;SDS011;35993;52.604;10.078;2023-04-16T04:45:08;26.92;;;14.43;;
50102;SDS011;35993;52.604;10.078;2023-04-16T04:47:34;26.88;;;14.95;;
50102;SDS011;35993;52.604;10.078;2023-04-16T04:50:00;26.58;;;15.35;;
50102;SDS011;35993;52.604;10.078;2023-04-16T04:52:26;25.48;;;14.20;;
50102;SDS011;35993;52.604;10.078;2023-04-16T04:54:52;29.65;;;14.68;;
50102;SDS011;35993;52.604;10.078;2023-04-16T04:57:17;25.15;;;13.98;;
50102;SDS011;35993;52.604;10.078;2023-04-16T04:59:43;26.60;;;14.32;;
50102;SDS011;35993;52.604;10.078;2023-04-16T05:02:10;25.80;;;13.98;;
50102;SDS011;35993;52.604;10.078;2023-04-16T05:04:36;25.48;;;14.30;;
50102;SDS011;35993;52.604;10.078;2023-04-16T05:07:01;25.60;;;13.85;;
50102;SDS011;35993;52.604;10.078;2023-04-16T05:09:27;26.40;;;13.60;;
50102;SDS011;35993;52.604;10.078;2023-04-16T05:11:52;24.45;;;13.93;;
50102;SDS011;35993;52.604;10.078;2023-04-16T05:14:18;23.88;;;13.18;;
50102;SDS011;35993;52.604;10.078;2023-04-16T05:16:44;26.80;;;14.05;;
50102;SDS011;35993;52.604;10.078;2023-04-16T05:19:09;23.83;;;13.25;;
50102;SDS011;35993;52.604;10.078;2023-04-16T05:21:35;23.63;;;13.95;;
50102;SDS011;35993;52.604;10.078;2023-04-16T05:24:00;28.77;;;13.38;;
50102;SDS011;35993;52.604;10.078;2023-04-16T05:26:26;25.85;;;14.43;;
50102;SDS011;35993;52.604;10.078;2023-04-16T05:28:52;25.60;;;14.10;;
50102;SDS011;35993;52.604;10.078;2023-04-16T05:31:17;28.48;;;13.85;;
50102;SDS011;35993;52.604;10.078;2023-04-16T05:33:43;24.67;;;13.23;;
50102;SDS011;35993;52.604;10.078;2023-04-16T05:36:08;24.40;;;13.95;;
50102;SDS011;35993;52.604;10.078;2023-04-16T05:38:34;24.13;;;13.88;;
50102;SDS011;35993;52.604;10.078;2023-04-16T05:41:00;24.48;;;13.60;;
50102;SDS011;35993;52.604;10.078;2023-04-16T05:43:25;21.65;;;12.38;;
50102;SDS011;35993;52.604;10.078;2023-04-16T05:45:51;22.73;;;13.30;;
50102;SDS011;35993;52.604;10.078;2023-04-16T05:48:16;21.17;;;12.38;;
50102;SDS011;35993;52.604;10.078;2023-04-16T05:50:42;22.73;;;13.05;;
50102;SDS011;35993;52.604;10.078;2023-04-16T05:53:08;24.25;;;13.55;;
50102;SDS011;35993;52.604;10.078;2023-04-16T05:55:36;19.60;;;12.27;;
50102;SDS011;35993;52.604;10.078;2023-04-16T05:58:02;24.35;;;12.88;;
50102;SDS011;35993;52.604;10.078;2023-04-16T06:00:33;22.90;;;12.43;;
50102;SDS011;35993;52.604;10.078;2023-04-16T06:02:59;20.77;;;12.20;;
50102;SDS011;35993;52.604;10.078;2023-04-16T06:05:26;24.73;;;12.73;;
50102;SDS011;35993;52.604;10.078;2023-04-16T06:07:52;24.48;;;13.13;;
50102;SDS011;35993;52.604;10.078;2023-04-16T06:10:17;21.50;;;12.90;;
50102;SDS011;35993;52.604;10.078;2023-04-16T06:12:43;23.48;;;12.50;;
50102;SDS011;35993;52.604;10.078;2023-04-16T06:15:09;19.38;;;11.98;;
50102;SDS011;35993;52.604;10.078;2023-04-16T06:17:35;22.80;;;11.93;;
50102;SDS011;35993;52.604;10.078;2023-04-16T06:20:00;19.02;;;11.55;;
50102;SDS011;35993;52.604;10.078;2023-04-16T06:22:26;23.27;;;11.93;;
50102;SDS011;35993;52.604;10.078;2023-04-16T06:24:52;28.67;;;11.80;;
50102;SDS011;35993;52.604;10.078;2023-04-16T06:27:18;25.00;;;11.57;;
50102;SDS011;35993;52.604;10.078;2023-04-16T06:29:43;24.42;;;12.40;;
50102;SDS011;35993;52.604;10.078;2023-04-16T06:32:09;18.65;;;11.48;;
50102;SDS011;35993;52.604;10.078;2023-04-16T06:34:36;22.23;;;11.50;;
50102;SDS011;35993;52.604;10.078;2023-04-16T06:37:02;19.75;;;12.02;;
50102;SDS011;35993;52.604;10.078;2023-04-16T06:39:28;17.95;;;11.23;;
50102;SDS011;35993;52.604;10.078;2023-04-16T06:41:54;23.83;;;11.57;;
50102;SDS011;35993;52.604;10.078;2023-04-16T06:44:20;23.20;;;12.00;;
50102;SDS011;35993;52.604;10.078;2023-04-16T06:46:46;22.08;;;11.60;;
50102;SDS011;35993;52.604;10.078;2023-04-16T06:49:11;23.00;;;10.90;;
50102;SDS011;35993;52.604;10.078;2023-04-16T06:51:37;21.95;;;11.75;;
50102;SDS011;35993;52.604;10.078;2023-04-16T06:54:03;20.27;;;11.20;;
50102;SDS011;35993;52.604;10.078;2023-04-16T06:56:28;18.63;;;10.55;;
50102;SDS011;35993;52.604;10.078;2023-04-16T06:58:54;22.75;;;11.15;;
50102;SDS011;35993;52.604;10.078;2023-04-16T07:01:21;17.60;;;10.68;;
50102;SDS011;35993;52.604;10.078;2023-04-16T07:03:47;21.00;;;11.43;;
50102;SDS011;35993;52.604;10.078;2023-04-16T07:06:13;21.05;;;11.27;;
50102;SDS011;35993;52.604;10.078;2023-04-16T07:08:41;18.80;;;11.90;;
50102;SDS011;35993;52.604;10.078;2023-04-16T07:11:07;22.13;;;11.25;;
50102;SDS011;35993;52.604;10.078;2023-04-16T07:13:33;18.80;;;10.60;;
50102;SDS011;35993;52.604;10.078;2023-04-16T07:15:58;18.77;;;10.82;;
50102;SDS011;35993;52.604;10.078;2023-04-16T07:18:24;19.27;;;11.25;;
50102;SDS011;35993;52.604;10.078;2023-04-16T07:20:50;19.67;;;11.07;;
50102;SDS011;35993;52.604;10.078;2023-04-16T07:23:15;20.25;;;10.43;;
50102;SDS011;35993;52.604;10.078;2023-04-16T07:25:41;16.80;;;10.40;;
50102;SDS011;35993;52.604;10.078;2023-04-16T07:28:07;19.13;;;10.95;;
50102;SDS011;35993;52.604;10.078;2023-04-16T07:30:34;19.15;;;10.57;;
50102;SDS011;35993;52.604;10.078;2023-04-16T07:33:01;19.98;;;10.88;;
50102;SDS011;35993;52.604;10.078;2023-04-16T07:35:27;18.63;;;10.60;;
50102;SDS011;35993;52.604;10.078;2023-04-16T07:37:53;20.92;;;11.90;;
50102;SDS011;35993;52.604;10.078;2023-04-16T07:40:19;17.23;;;10.27;;
50102;SDS011;35993;52.604;10.078;2023-04-16T07:42:45;17.05;;;10.35;;
50102;SDS011;35993;52.604;10.078;2023-04-16T07:45:10;18.38;;;10.80;;
50102;SDS011;35993;52.604;10.078;2023-04-16T07:47:36;19.40;;;10.52;;
50102;SDS011;35993;52.604;10.078;2023-04-16T07:50:02;22.58;;;11.50;;
50102;SDS011;35993;52.604;10.078;2023-04-16T07:52:27;18.10;;;10.00;;
50102;SDS011;35993;52.604;10.078;2023-04-16T07:54:53;17.80;;;10.30;;
50102;SDS011;35993;52.604;10.078;2023-04-16T07:57:19;19.02;;;10.95;;
50102;SDS011;35993;52.604;10.078;2023-04-16T07:59:45;21.50;;;11.15;;
50102;SDS011;35993;52.604;10.078;2023-04-16T08:02:12;21.33;;;10.10;;
50102;SDS011;35993;52.604;10.078;2023-04-16T08:04:40;19.27;;;11.23;;
50102;SDS011;35993;52.604;10.078;2023-04-16T08:07:06;21.67;;;11.25;;
50102;SDS011;35993;52.604;10.078;2023-04-16T08:09:32;18.65;;;10.77;;
50102;SDS011;35993;52.604;10.078;2023-04-16T08:12:00;17.30;;;10.55;;
50102;SDS011;35993;52.604;10.078;2023-04-16T08:14:26;17.02;;;10.82;;
50102;SDS011;35993;52.604;10.078;2023-04-16T08:16:55;19.23;;;11.00;;
50102;SDS011;35993;52.604;10.078;2023-04-16T08:19:21;20.15;;;10.48;;
50102;SDS011;35993;52.604;10.078;2023-04-16T08:21:47;18.95;;;11.02;;
50102;SDS011;35993;52.604;10.078;2023-04-16T08:24:12;18.88;;;10.95;;
50102;SDS011;35993;52.604;10.078;2023-04-16T08:26:38;21.73;;;11.32;;
50102;SDS011;35993;52.604;10.078;2023-04-16T08:29:03;18.80;;;10.63;;
50102;SDS011;35993;52.604;10.078;2023-04-16T08:31:30;18.50;;;10.93;;
50102;SDS011;35993;52.604;10.078;2023-04-16T08:33:57;17.58;;;10.15;;
50102;SDS011;35993;52.604;10.078;2023-04-16T08:36:22;20.80;;;10.77;;
50102;SDS011;35993;52.604;10.078;2023-04-16T08:38:48;19.00;;;10.75;;
50102;SDS011;35993;52.604;10.078;2023-04-16T08:41:17;19.25;;;10.55;;
50102;SDS011;35993;52.604;10.078;2023-04-16T08:43:45;18.02;;;10.57;;
50102;SDS011;35993;52.604;10.078;2023-04-16T08:46:14;25.35;;;10.43;;
50102;SDS011;35993;52.604;10.078;2023-04-16T08:48:41;19.20;;;10.70;;
50102;SDS011;35993;52.604;10.078;2023-04-16T08:51:11;19.02;;;10.40;;
50102;SDS011;35993;52.604;10.078;2023-04-16T08:53:42;20.65;;;11.48;;
50102;SDS011;35993;52.604;10.078;2023-04-16T08:56:19;20.67;;;10.60;;
50102;SDS011;35993;52.604;10.078;2023-04-16T08:58:47;18.48;;;10.80;;
50102;SDS011;35993;52.604;10.078;2023-04-16T09:01:15;18.00;;;11.05;;
50102;SDS011;35993;52.604;10.078;2023-04-16T09:03:42;20.30;;;11.43;;
50102;SDS011;35993;52.604;10.078;2023-04-16T09:06:10;18.80;;;10.90;;
50102;SDS011;35993;52.604;10.078;2023-04-16T09:08:36;22.23;;;11.40;;
50102;SDS011;35993;52.604;10.078;2023-04-16T09:11:02;17.73;;;10.65;;
50102;SDS011;35993;52.604;10.078;2023-04-16T09:13:29;18.00;;;10.95;;
50102;SDS011;35993;52.604;10.078;2023-04-16T09:15:58;21.63;;;11.35;;
50102;SDS011;35993;52.604;10.078;2023-04-16T09:18:24;18.17;;;11.10;;
50102;SDS011;35993;52.604;10.078;2023-04-16T09:20:50;17.60;;;11.13;;
50102;SDS011;35993;52.604;10.078;2023-04-16T09:23:16;17.63;;;10.75;;
50102;SDS011;35993;52.604;10.078;2023-04-16T09:25:42;18.02;;;10.70;;
50102;SDS011;35993;52.604;10.078;2023-04-16T09:28:08;18.55;;;11.70;;
50102;SDS011;35993;52.604;10.078;2023-04-16T09:30:34;21.02;;;11.35;;
50102;SDS011;35993;52.604;10.078;2023-04-16T09:33:17;19.02;;;11.07;;
50102;SDS011;35993;52.604;10.078;2023-04-16T09:35:48;19.60;;;11.68;;
50102;SDS011;35993;52.604;10.078;2023-04-16T09:38:15;18.23;;;11.40;;
50102;SDS011;35993;52.604;10.078;2023-04-16T09:40:41;19.08;;;11.30;;
50102;SDS011;35993;52.604;10.078;2023-04-16T09:43:10;21.92;;;12.07;;
50102;SDS011;35993;52.604;10.078;2023-04-16T09:45:50;21.90;;;11.68;;
50102;SDS011;35993;52.604;10.078;2023-04-16T09:48:32;18.42;;;11.55;;
50102;SDS011;35993;52.604;10.078;2023-04-16T09:50:58;19.63;;;11.82;;
50102;SDS011;35993;52.604;10.078;2023-04-16T09:53:25;23.52;;;11.20;;
50102;SDS011;35993;52.604;10.078;2023-04-16T09:55:55;20.15;;;12.55;;
50102;SDS011;35993;52.604;10.078;2023-04-16T09:58:22;17.40;;;11.13;;
50102;SDS011;35993;52.604;10.078;2023-04-16T10:01:01;18.50;;;11.82;;
50102;SDS011;35993;52.604;10.078;2023-04-16T10:03:28;19.30;;;11.85;;
50102;SDS011;35993;52.604;10.078;2023-04-16T10:05:58;18.95;;;11.05;;
50102;SDS011;35993;52.604;10.078;2023-04-16T10:08:48;18.70;;;11.63;;
50102;SDS011;35993;52.604;10.078;2023-04-16T10:11:15;21.50;;;12.38;;
50102;SDS011;35993;52.604;10.078;2023-04-16T10:13:41;17.45;;;11.80;;
50102;SDS011;35993;52.604;10.078;2023-04-16T10:16:07;21.92;;;12.60;;
50102;SDS011;35993;52.604;10.078;2023-04-16T10:18:37;20.92;;;12.88;;
50102;SDS011;35993;52.604;10.078;2023-04-16T10:21:04;22.52;;;12.65;;
50102;SDS011;35993;52.604;10.078;2023-04-16T10:23:33;22.20;;;13.43;;
50102;SDS011;35993;52.604;10.078;2023-04-16T10:25:59;20.50;;;12.52;;
50102;SDS011;35993;52.604;10.078;2023-04-16T10:28:26;20.90;;;13.10;;
50102;SDS011;35993;52.604;10.078;2023-04-16T10:30:53;18.85;;;12.15;;
50102;SDS011;35993;52.604;10.078;2023-04-16T10:33:26;22.58;;;13.07;;
50102;SDS011;35993;52.604;10.078;2023-04-16T10:36:06;22.15;;;12.93;;
50102;SDS011;35993;52.604;10.078;2023-04-16T10:38:40;21.52;;;12.85;;
50102;SDS011;35993;52.604;10.078;2023-04-16T10:41:09;22.10;;;13.15;;
50102;SDS011;35993;52.604;10.078;2023-04-16T10:43:48;24.45;;;12.93;;
50102;SDS011;35993;52.604;10.078;2023-04-16T10:48:48;22.33;;;13.35;;
50102;SDS011;35993;52.604;10.078;2023-04-16T10:51:24;19.95;;;12.93;;
50102;SDS011;35993;52.604;10.078;2023-04-16T10:53:50;20.08;;;12.68;;
50102;SDS011;35993;52.604;10.078;2023-04-16T10:56:21;22.90;;;13.20;;
50102;SDS011;35993;52.604;10.078;2023-04-16T10:58:52;28.35;;;13.55;;
50102;SDS011;35993;52.604;10.078;2023-04-16T11:01:34;23.55;;;13.82;;
50102;SDS011;35993;52.604;10.078;2023-04-16T11:09:57;22.77;;;14.23;;
50102;SDS011;35993;52.604;10.078;2023-04-16T11:17:28;23.92;;;13.20;;
50102;SDS011;35993;52.604;10.078;2023-04-16T11:19:54;23.30;;;14.40;;
50102;SDS011;35993;52.604;10.078;2023-04-16T11:22:20;22.75;;;13.35;;
50102;SDS011;35993;52.604;10.078;2023-04-16T11:24:46;22.02;;;13.40;;
50102;SDS011;35993;52.604;10.078;2023-04-16T11:27:12;24.13;;;13.82;;
50102;SDS011;35993;52.604;10.078;2023-04-16T11:29:39;24.77;;;13.52;;
50102;SDS011;35993;52.604;10.078;2023-04-16T11:32:08;22.00;;;13.00;;
50102;SDS011;35993;52.604;10.078;2023-04-16T11:34:41;25.50;;;13.90;;
50102;SDS011;35993;52.604;10.078;2023-04-16T11:37:08;21.85;;;13.13;;
50102;SDS011;35993;52.604;10.078;2023-04-16T11:39:45;24.77;;;14.40;;
50102;SDS011;35993;52.604;10.078;2023-04-16T11:42:17;22.67;;;13.27;;
50102;SDS011;35993;52.604;10.078;2023-04-16T11:44:43;19.02;;;13.40;;
50102;SDS011;35993;52.604;10.078;2023-04-16T11:47:09;18.55;;;12.05;;
50102;SDS011;35993;52.604;10.078;2023-04-16T11:49:37;21.38;;;12.75;;
50102;SDS011;35993;52.604;10.078;2023-04-16T11:52:03;20.17;;;12.75;;
50102;SDS011;35993;52.604;10.078;2023-04-16T11:54:29;23.48;;;12.00;;
50102;SDS011;35993;52.604;10.078;2023-04-16T11:56:58;18.92;;;12.10;;
50102;SDS011;35993;52.604;10.078;2023-04-16T11:59:25;18.52;;;11.60;;
50102;SDS011;35993;52.604;10.078;2023-04-16T12:01:51;18.33;;;11.50;;
50102;SDS011;35993;52.604;10.078;2023-04-16T12:04:24;17.58;;;11.02;;
50102;SDS011;35993;52.604;10.078;2023-04-16T12:07:04;18.02;;;10.98;;
50102;SDS011;35993;52.604;10.078;2023-04-16T12:09:32;18.02;;;11.43;;
50102;SDS011;35993;52.604;10.078;2023-04-16T12:12:01;17.92;;;10.90;;
50102;SDS011;35993;52.604;10.078;2023-04-16T12:14:28;18.20;;;11.68;;
50102;SDS011;35993;52.604;10.078;2023-04-16T12:16:54;16.70;;;11.23;;
50102;SDS011;35993;52.604;10.078;2023-04-16T12:19:20;18.75;;;11.45;;
50102;SDS011;35993;52.604;10.078;2023-04-16T12:21:46;18.63;;;12.93;;
50102;SDS011;35993;52.604;10.078;2023-04-16T12:24:14;21.27;;;12.20;;
50102;SDS011;35993;52.604;10.078;2023-04-16T12:26:42;19.05;;;11.80;;
50102;SDS011;35993;52.604;10.078;2023-04-16T12:29:16;20.90;;;11.52;;
50102;SDS011;35993;52.604;10.078;2023-04-16T12:31:43;18.27;;;11.68;;
50102;SDS011;35993;52.604;10.078;2023-04-16T12:34:09;18.25;;;11.20;;
50102;SDS011;35993;52.604;10.078;2023-04-16T12:36:35;17.25;;;10.77;;
50102;SDS011;35993;52.604;10.078;2023-04-16T12:39:01;18.23;;;10.77;;
50102;SDS011;35993;52.604;10.078;2023-04-16T12:41:27;19.08;;;11.52;;
50102;SDS011;35993;52.604;10.078;2023-04-16T12:44:01;18.70;;;10.82;;
50102;SDS011;35993;52.604;10.078;2023-04-16T12:46:39;18.73;;;11.27;;
50102;SDS011;35993;52.604;10.078;2023-04-16T12:49:06;17.52;;;11.18;;
50102;SDS011;35993;52.604;10.078;2023-04-16T12:51:32;15.95;;;10.32;;
50102;SDS011;35993;52.604;10.078;2023-04-16T12:54:00;17.17;;;10.43;;
50102;SDS011;35993;52.604;10.078;2023-04-16T12:56:26;14.90;;;9.85;;
50102;SDS011;35993;52.604;10.078;2023-04-16T12:58:52;17.50;;;10.68;;
50102;SDS011;35993;52.604;10.078;2023-04-16T13:01:18;15.38;;;10.23;;
50102;SDS011;35993;52.604;10.078;2023-04-16T13:03:44;16.60;;;10.18;;
50102;SDS011;35993;52.604;10.078;2023-04-16T13:06:10;19.27;;;10.32;;
50102;SDS011;35993;52.604;10.078;2023-04-16T13:08:37;15.90;;;10.63;;
50102;SDS011;35993;52.604;10.078;2023-04-16T13:11:02;14.98;;;9.98;;
50102;SDS011;35993;52.604;10.078;2023-04-16T13:13:28;15.85;;;9.90;;
50102;SDS011;35993;52.604;10.078;2023-04-16T13:15:54;14.52;;;9.70;;
50102;SDS011;35993;52.604;10.078;2023-04-16T13:18:19;16.55;;;9.73;;
50102;SDS011;35993;52.604;10.078;2023-04-16T13:20:45;14.57;;;9.98;;
50102;SDS011;35993;52.604;10.078;2023-04-16T13:23:10;15.93;;;10.18;;
50102;SDS011;35993;52.604;10.078;2023-04-16T13:25:36;16.58;;;10.25;;
50102;SDS011;35993;52.604;10.078;2023-04-16T13:28:01;17.08;;;10.38;;
50102;SDS011;35993;52.604;10.078;2023-04-16T13:30:27;14.40;;;9.73;;
50102;SDS011;35993;52.604;10.078;2023-04-16T13:32:54;15.93;;;9.50;;
50102;SDS011;35993;52.604;10.078;2023-04-16T13:35:28;15.00;;;9.88;;
50102;SDS011;35993;52.604;10.078;2023-04-16T13:37:54;15.38;;;9.25;;
50102;SDS011;35993;52.604;10.078;2023-04-16T13:40:19;14.60;;;9.23;;
50102;SDS011;35993;52.604;10.078;2023-04-16T13:42:45;13.25;;;8.88;;
50102;SDS011;35993;52.604;10.078;2023-04-16T13:45:10;13.95;;;8.82;;
50102;SDS011;35993;52.604;10.078;2023-04-16T13:47:39;12.10;;;8.52;;
50102;SDS011;35993;52.604;10.078;2023-04-16T13:50:06;13.18;;;8.75;;
50102;SDS011;35993;52.604;10.078;2023-04-16T13:52:32;14.48;;;8.68;;
50102;SDS011;35993;52.604;10.078;2023-04-16T13:54:58;14.32;;;8.93;;
50102;SDS011;35993;52.604;10.078;2023-04-16T13:57:24;13.98;;;8.27;;
50102;SDS011;35993;52.604;10.078;2023-04-16T13:59:50;13.18;;;8.77;;
50102;SDS011;35993;52.604;10.078;2023-04-16T14:02:15;13.20;;;8.95;;
50102;SDS011;35993;52.604;10.078;2023-04-16T14:04:41;15.05;;;9.00;;
50102;SDS011;35993;52.604;10.078;2023-04-16T14:07:06;15.18;;;9.20;;
50102;SDS011;35993;52.604;10.078;2023-04-16T14:09:32;13.75;;;9.07;;
50102;SDS011;35993;52.604;10.078;2023-04-16T14:11:57;13.82;;;9.25;;
50102;SDS011;35993;52.604;10.078;2023-04-16T14:14:23;13.27;;;9.40;;
50102;SDS011;35993;52.604;10.078;2023-04-16T14:16:50;16.35;;;9.32;;
50102;SDS011;35993;52.604;10.078;2023-04-16T14:19:18;13.23;;;9.07;;
50102;SDS011;35993;52.604;10.078;2023-04-16T14:21:43;12.77;;;9.20;;
50102;SDS011;35993;52.604;10.078;2023-04-16T14:24:09;15.63;;;9.30;;
50102;SDS011;35993;52.604;10.078;2023-04-16T14:26:34;13.88;;;9.35;;